Weather at Baltimore/Washington International Thurgood Marshall Airport

Public forecast

Using degrees Fahrenheit for public forecast. Weather courtesy of forecast.io.

Current aviation weather report (METAR) for Baltimore/Washington International Thurgood Marshall Airport

Report is more than 6 hours old.

Retrieved 2020/10/29 23:54 UTC (1 day ago):

KBWI 302354Z 23004KT 10SM SCT090 08/04 A3018 RMK AO2 SLP220 T00780039 10117 20072 53030

Aviation forecast (TAF) for Baltimore/Washington International Thurgood Marshall Airport

Retrieved 2020-10-31 00:42 UTC (0 seconds ago):

TAF KBWI 302340Z 3100/0106 36008KT P6SM SCT050 BKN090 FM310600 01004KT P6SM FEW060 FM311600 06004KT P6SM FEW250 FM312000 12004KT P6SM FEW250 FM010400 18003KT P6SM SCT120